Time;durP1;ratioP1;P1;durP2;ratioP2;P2;SDS_P1;SDS_P2;PMS_P1;PMS_P2;Temp;Humidity;BMP_temperature;BMP_pressure;BME280_temperature;BME280_humidity;BME280_pressure;Samples;Min_cycle;Max_cycle;Signal;HPM_P1;HPM_P2
2021/11/30 00:01:29;;;;;;;;;;;;;;;;;;4546135;28;20034;-70
2021/11/30 00:03:39;;;;;;;;;;;;;;;;;;4546694;28;20062;-70
2021/11/30 00:05:50;;;;;;;;;;;;;;;;;;4545630;28;19921;-71
2021/11/30 00:08:03;;;;;;;;;;;;;;;;;;4545220;28;19916;-71
2021/11/30 00:12:25;;;;;;;;;;;;;;;;;;4544775;28;20015;-71
2021/11/30 00:14:36;;;;;;;;;;;;;;;;;;4545574;28;19916;-69
2021/11/30 00:16:46;;;;;;;;;;;;;;;;;;4547651;28;19917;-69
2021/11/30 00:18:56;;;;;;;;;;;;;;;;;;4547505;28;20003;-68
2021/11/30 00:21:07;;;;;;;;;;;;;;;;;;4547913;28;20006;-69
2021/11/30 00:23:17;;;;;;;;;;;;;;;;;;4545229;28;20373;-69
2021/11/30 00:25:28;;;;;;;;;;;;;;;;;;4548814;28;19917;-69
2021/11/30 00:27:38;;;;;;;;;;;;;;;;;;4549581;28;19922;-69
2021/11/30 00:29:48;;;;;;;;;;;;;;;;;;4548284;28;19921;-69
2021/11/30 00:31:59;;;;;;;;;;;;;;;;;;4545307;28;19916;-69
2021/11/30 00:34:09;;;;;;;;;;;;;;;;;;4543722;28;20493;-69
2021/11/30 00:36:20;;;;;;;;;;;;;;;;;;4545917;28;20007;-69
2021/11/30 00:38:31;;;;;;;;;;;;;;;;;;4547107;28;19912;-69
2021/11/30 00:40:42;;;;;;;;;;;;;;;;;;4546390;28;19920;-69
2021/11/30 00:42:52;;;;;;;;;;;;;;;;;;4545105;28;19912;-68
2021/11/30 00:45:05;;;;;;;;;;;;;;;;;;4545095;28;19995;-68
2021/11/30 00:47:18;;;;;;;;;;;;;;;;;;4544633;28;19978;-69
2021/11/30 00:49:29;;;;;;;;;;;;;;;;;;4545073;28;19928;-69
2021/11/30 00:51:40;;;;;;;;;;;;;;;;;;4545762;28;19928;-68
2021/11/30 00:53:50;;;;;;;;;;;;;;;;;;4544300;28;19916;-69
2021/11/30 00:56:01;;;;;;;;;;;;;;;;;;4543477;28;19920;-68
2021/11/30 00:58:11;;;;;;;;;;;;;;;;;;4543954;28;19931;-68
2021/11/30 01:00:21;;;;;;;;;;;;;;;;;;4546592;28;19938;-68
2021/11/30 01:02:32;;;;;;;;;;;;;;;;;;4544869;28;19923;-69
2021/11/30 01:04:42;;;;;;;;;;;;;;;;;;4545277;28;19938;-69
2021/11/30 01:06:52;;;;;;;;;;;;;;;;;;4546687;28;19923;-69
2021/11/30 01:09:03;;;;;;;;;;;;;;;;;;4545069;28;19925;-70
2021/11/30 01:11:14;;;;;;;;;;;;;;;;;;4543077;28;19924;-68
2021/11/30 01:13:25;;;;;;;;;;;;;;;;;;4545055;28;19916;-69
2021/11/30 01:15:35;;;;;;;;;;;;;;;;;;4545065;28;19916;-69
2021/11/30 01:17:45;;;;;;;;;;;;;;;;;;4537118;28;19917;-68
2021/11/30 01:19:56;;;;;;;;;;;;;;;;;;4545482;28;19924;-68
2021/11/30 01:22:06;;;;;;;;;;;;;;;;;;4545539;28;19951;-69
2021/11/30 01:24:16;;;;;;;;;;;;;;;;;;4543620;28;20126;-67
2021/11/30 01:26:27;;;;;;;;;;;;;;;;;;4546006;28;19920;-69
2021/11/30 01:28:37;;;;;;;;;;;;;;;;;;4544762;28;19988;-68
2021/11/30 01:30:47;;;;;;;;;;;;;;;;;;4546972;28;25125;-68
2021/11/30 01:32:58;;;;;;;;;;;;;;;;;;4547232;28;19924;-68
2021/11/30 01:35:08;;;;;;;;;;;;;;;;;;4543623;28;19912;-68
2021/11/30 01:37:19;;;;;;;;;;;;;;;;;;4544237;28;19912;-69
2021/11/30 01:39:29;;;;;;;;;;;;;;;;;;4546809;28;19956;-69
2021/11/30 01:41:42;;;;;;;;;;;;;;;;;;4545480;28;19998;-69
2021/11/30 01:43:53;;;;;;;;;;;;;;;;;;4547335;28;19924;-68
2021/11/30 01:46:10;;;;;;;;;;;;;;;;;;4544195;28;20301;-69
2021/11/30 01:50:34;;;;;;;;;;;;;;;;;;4546145;28;19928;-69
2021/11/30 01:52:46;;;;;;;;;;;;;;;;;;4544445;28;19916;-69
2021/11/30 01:54:57;;;;;;;;;;;;;;;;;;4544889;28;19923;-69
2021/11/30 01:57:07;;;;;;;;;;;;;;;;;;4547207;28;19927;-69
2021/11/30 01:59:18;;;;;;;;;;;;;;;;;;4547121;28;19916;-69
2021/11/30 02:01:28;;;;;;;;;;;;;;;;;;4547528;28;20245;-69
2021/11/30 02:03:38;;;;;;;;;;;;;;;;;;4548369;28;20003;-69
2021/11/30 02:05:49;;;;;;;;;;;;;;;;;;4549155;28;20384;-68
2021/11/30 02:08:00;;;;;;;;;;;;;;;;;;4545964;28;20458;-68
2021/11/30 02:10:11;;;;;;;;;;;;;;;;;;4551146;28;20392;-69
2021/11/30 02:12:21;;;;;;;;;;;;;;;;;;4547521;28;19985;-68
2021/11/30 02:14:32;;;;;;;;;;;;;;;;;;4550345;28;20007;-69
2021/11/30 02:16:44;;;;;;;;;;;;;;;;;;4546737;28;19912;-69
2021/11/30 02:18:59;;;;;;;;;;;;;;;;;;4545412;28;19916;-69
2021/11/30 02:21:10;;;;;;;;;;;;;;;;;;4550195;28;19920;-69
2021/11/30 02:26:02;;;;;;;;;;;;;;;;;;4539559;28;19966;-69
2021/11/30 02:28:13;;;;;;;;;;;;;;;;;;4548977;28;19921;-68
2021/11/30 02:30:23;;;;;;;;;;;;;;;;;;4546640;28;19967;-68
2021/11/30 02:32:33;;;;;;;;;;;;;;;;;;4546747;28;19963;-69
2021/11/30 02:34:44;;;;;;;;;;;;;;;;;;4547253;28;20015;-68
2021/11/30 02:37:02;;;;;;;;;;;;;;;;;;4547456;28;19944;-68
2021/11/30 02:39:14;;;;;;;;;;;;;;;;;;4545775;28;19942;-69
2021/11/30 02:41:25;;;;;;;;;;;;;;;;;;4547939;28;20027;-69
2021/11/30 02:43:35;;;;;;;;;;;;;;;;;;4546063;28;19916;-68
2021/11/30 02:45:45;;;;;;;;;;;;;;;;;;4548514;28;20670;-69
2021/11/30 02:47:56;;;;;;;;;;;;;;;;;;4548168;28;19923;-69
2021/11/30 02:50:07;;;;;;;;;;;;;;;;;;4547481;28;20011;-69
2021/11/30 02:52:19;;;;;;;;;;;;;;;;;;4546759;28;19916;-69
2021/11/30 02:54:29;;;;;;;;;;;;;;;;;;4546294;28;19916;-69
2021/11/30 02:56:44;;;;;;;;;;;;;;;;;;4546668;28;19921;-69
2021/11/30 02:58:54;;;;;;;;;;;;;;;;;;4546555;28;20015;-69
2021/11/30 03:01:07;;;;;;;;;;;;;;;;;;4546572;28;19923;-69
2021/11/30 03:03:17;;;;;;;;;;;;;;;;;;4546196;28;20933;-69
2021/11/30 03:05:27;;;;;;;;;;;;;;;;;;4547480;28;19946;-69
2021/11/30 03:07:38;;;;;;;;;;;;;;;;;;4545000;28;20066;-69
2021/11/30 03:09:49;;;;;;;;;;;;;;;;;;4546406;28;20027;-69
2021/11/30 03:11:59;;;;;;;;;;;;;;;;;;4548256;28;19916;-69
2021/11/30 03:14:10;;;;;;;;;;;;;;;;;;4548653;28;27169;-69
2021/11/30 03:16:20;;;;;;;;;;;;;;;;;;4547193;28;19917;-69
2021/11/30 03:18:31;;;;;;;;;;;;;;;;;;4546845;28;21689;-69
2021/11/30 03:20:41;;;;;;;;;;;;;;;;;;4545259;28;19921;-69
2021/11/30 03:22:52;;;;;;;;;;;;;;;;;;4548884;28;19923;-69
2021/11/30 03:25:02;;;;;;;;;;;;;;;;;;4545406;28;19932;-69
2021/11/30 03:27:12;;;;;;;;;;;;;;;;;;4547382;28;19920;-68
2021/11/30 03:29:23;;;;;;;;;;;;;;;;;;4545652;28;19924;-69
2021/11/30 03:34:01;;;;;;;;;;;;;;;;;;4546793;28;19970;-69
2021/11/30 03:36:11;;;;;;;;;;;;;;;;;;4547917;28;19924;-69
2021/11/30 03:38:21;;;;;;;;;;;;;;;;;;4544091;28;19983;-69
2021/11/30 03:40:32;;;;;;;;;;;;;;;;;;4545531;28;19920;-69
2021/11/30 03:42:42;;;;;;;;;;;;;;;;;;4547191;28;20336;-68
2021/11/30 03:44:53;;;;;;;;;;;;;;;;;;4546612;28;20590;-69
2021/11/30 03:47:03;;;;;;;;;;;;;;;;;;4533575;28;19952;-69
2021/11/30 03:49:14;;;;;;;;;;;;;;;;;;4546367;28;19927;-69
2021/11/30 03:51:24;;;;;;;;;;;;;;;;;;4546917;28;20382;-69
2021/11/30 03:53:34;;;;;;;;;;;;;;;;;;4545282;28;19947;-69
2021/11/30 03:55:45;;;;;;;;;;;;;;;;;;4546468;28;19919;-69
2021/11/30 03:57:55;;;;;;;;;;;;;;;;;;4548144;28;19926;-69
2021/11/30 04:00:09;;;;;;;;;;;;;;;;;;4532612;28;19971;-68
2021/11/30 04:02:19;;;;;;;;;;;;;;;;;;4545580;28;19975;-69
2021/11/30 04:04:34;;;;;;;;;;;;;;;;;;4545676;28;20015;-70
2021/11/30 04:06:44;;;;;;;;;;;;;;;;;;4544340;28;19918;-69
2021/11/30 04:08:55;;;;;;;;;;;;;;;;;;4546167;28;19931;-69
2021/11/30 04:11:05;;;;;;;;;;;;;;;;;;4543814;28;19922;-69
2021/11/30 04:13:16;;;;;;;;;;;;;;;;;;4546911;28;19959;-69
2021/11/30 04:15:26;;;;;;;;;;;;;;;;;;4548447;28;19921;-69
2021/11/30 04:17:40;;;;;;;;;;;;;;;;;;4546986;28;19916;-69
2021/11/30 04:19:50;;;;;;;;;;;;;;;;;;4547231;28;19927;-70
2021/11/30 04:22:01;;;;;;;;;;;;;;;;;;4545523;28;19923;-70
2021/11/30 04:24:11;;;;;;;;;;;;;;;;;;4548511;28;19999;-69
2021/11/30 04:26:21;;;;;;;;;;;;;;;;;;4543976;28;19927;-69
2021/11/30 04:28:32;;;;;;;;;;;;;;;;;;4546981;28;20009;-70
2021/11/30 04:30:42;;;;;;;;;;;;;;;;;;4545356;28;19963;-69
2021/11/30 04:32:53;;;;;;;;;;;;;;;;;;4549711;28;19920;-69
2021/11/30 04:35:03;;;;;;;;;;;;;;;;;;4546431;28;20280;-69
2021/11/30 04:37:13;;;;;;;;;;;;;;;;;;4547383;28;19962;-69
2021/11/30 04:39:24;;;;;;;;;;;;;;;;;;4545208;28;19927;-69
2021/11/30 04:41:34;;;;;;;;;;;;;;;;;;4545986;28;20292;-69
2021/11/30 04:43:44;;;;;;;;;;;;;;;;;;4546769;28;19970;-69
2021/11/30 04:45:58;;;;;;;;;;;;;;;;;;4544687;28;22159;-69
2021/11/30 04:48:08;;;;;;;;;;;;;;;;;;4543791;28;19916;-69
2021/11/30 04:50:24;;;;;;;;;;;;;;;;;;4554135;28;19924;-69
2021/11/30 04:52:36;;;;;;;;;;;;;;;;;;4546416;28;19919;-68
2021/11/30 04:54:46;;;;;;;;;;;;;;;;;;4542454;28;19916;-69
2021/11/30 04:56:57;;;;;;;;;;;;;;;;;;4547061;28;20320;-68
2021/11/30 04:59:07;;;;;;;;;;;;;;;;;;4553988;28;19924;-69
2021/11/30 05:01:18;;;;;;;;;;;;;;;;;;4546628;28;19923;-69
2021/11/30 05:03:29;;;;;;;;;;;;;;;;;;4545324;28;19917;-69
2021/11/30 05:05:40;;;;;;;;;;;;;;;;;;4545132;28;19916;-68
2021/11/30 05:07:50;;;;;;;;;;;;;;;;;;4542726;28;20417;-69
2021/11/30 05:10:00;;;;;;;;;;;;;;;;;;4544517;28;20505;-69
2021/11/30 05:12:11;;;;;;;;;;;;;;;;;;4543678;28;19916;-68
2021/11/30 05:14:21;;;;;;;;;;;;;;;;;;4545802;28;20312;-68
2021/11/30 05:16:31;;;;;;;;;;;;;;;;;;4546093;28;19917;-68
2021/11/30 05:18:42;;;;;;;;;;;;;;;;;;4544201;28;19912;-68
2021/11/30 05:20:54;;;;;;;;;;;;;;;;;;4546902;28;20007;-68
2021/11/30 05:23:05;;;;;;;;;;;;;;;;;;4546681;28;20621;-69
2021/11/30 05:25:17;;;;;;;;;;;;;;;;;;4546576;28;19919;-68
2021/11/30 05:27:28;;;;;;;;;;;;;;;;;;4544051;28;19960;-69
2021/11/30 05:29:38;;;;;;;;;;;;;;;;;;4545168;28;20469;-69
2021/11/30 05:31:48;;;;;;;;;;;;;;;;;;4546497;28;20369;-68
2021/11/30 05:33:59;;;;;;;;;;;;;;;;;;4549166;28;20375;-68
2021/11/30 05:36:09;;;;;;;;;;;;;;;;;;4548993;28;20007;-68
2021/11/30 05:38:20;;;;;;;;;;;;;;;;;;4549008;28;19920;-69
2021/11/30 05:40:32;;;;;;;;;;;;;;;;;;4548109;28;19912;-69
2021/11/30 05:42:43;;;;;;;;;;;;;;;;;;4545897;28;19916;-68
2021/11/30 05:44:53;;;;;;;;;;;;;;;;;;4547623;28;19916;-68
2021/11/30 05:47:03;;;;;;;;;;;;;;;;;;4547275;28;19963;-69
2021/11/30 05:49:13;;;;;;;;;;;;;;;;;;4548944;28;19924;-69
2021/11/30 05:51:24;;;;;;;;;;;;;;;;;;4549409;28;20343;-68
2021/11/30 05:53:34;;;;;;;;;;;;;;;;;;4547057;28;19920;-69
2021/11/30 05:55:45;;;;;;;;;;;;;;;;;;4548321;28;19917;-68
2021/11/30 05:57:55;;;;;;;;;;;;;;;;;;4534696;28;20002;-69
2021/11/30 06:00:07;;;;;;;;;;;;;;;;;;4548210;28;19969;-70
2021/11/30 06:02:22;;;;;;;;;;;;;;;;;;4547398;28;21068;-69
2021/11/30 06:04:32;;;;;;;;;;;;;;;;;;4546352;28;20471;-69
2021/11/30 06:06:43;;;;;;;;;;;;;;;;;;4548732;28;19917;-69
2021/11/30 06:08:53;;;;;;;;;;;;;;;;;;4548378;28;19926;-69
2021/11/30 06:11:03;;;;;;;;;;;;;;;;;;4548617;28;19920;-69
2021/11/30 06:13:14;;;;;;;;;;;;;;;;;;4547370;28;19920;-69
2021/11/30 06:15:24;;;;;;;;;;;;;;;;;;4547738;28;19904;-69
2021/11/30 06:17:34;;;;;;;;;;;;;;;;;;4549633;28;20472;-69
2021/11/30 06:19:45;;;;;;;;;;;;;;;;;;4550226;28;19963;-69
2021/11/30 06:21:55;;;;;;;;;;;;;;;;;;4548698;28;21748;-70
2021/11/30 06:24:05;;;;;;;;;;;;;;;;;;4549955;28;19967;-69
2021/11/30 06:26:16;;;;;;;;;;;;;;;;;;4548434;28;19990;-69
2021/11/30 06:28:26;;;;;;;;;;;;;;;;;;4533786;28;20347;-70
2021/11/30 06:30:36;;;;;;;;;;;;;;;;;;4548073;28;19931;-68
2021/11/30 06:32:47;;;;;;;;;;;;;;;;;;4546771;28;19970;-69
2021/11/30 06:34:57;;;;;;;;;;;;;;;;;;4548984;28;19970;-69
2021/11/30 06:37:08;;;;;;;;;;;;;;;;;;4546600;28;19927;-69
2021/11/30 06:39:19;;;;;;;;;;;;;;;;;;4546440;28;19962;-70
2021/11/30 06:41:29;;;;;;;;;;;;;;;;;;4548963;28;20298;-70
2021/11/30 06:43:39;;;;;;;;;;;;;;;;;;4545270;28;19928;-69
2021/11/30 06:45:50;;;;;;;;;;;;;;;;;;4547047;28;19920;-69
2021/11/30 06:48:00;;;;;;;;;;;;;;;;;;4547809;28;20261;-69
2021/11/30 06:50:11;;;;;;;;;;;;;;;;;;4547630;28;19936;-69
2021/11/30 06:52:21;;;;;;;;;;;;;;;;;;4546753;28;20156;-70
2021/11/30 06:54:31;;;;;;;;;;;;;;;;;;4546172;28;19943;-69
2021/11/30 06:56:42;;;;;;;;;;;;;;;;;;4546955;28;20373;-69
2021/11/30 06:58:52;;;;;;;;;;;;;;;;;;4548783;28;19971;-70
2021/11/30 07:01:03;;;;;;;;;;;;;;;;;;4547722;28;20420;-69
2021/11/30 07:03:13;;;;;;;;;;;;;;;;;;4547049;28;20308;-69
2021/11/30 07:10:12;;;;;;;;;;;;;;;;;;4562748;28;19928;-70
2021/11/30 07:12:47;;;;;;;;;;;;;;;;;;4547746;28;19920;-69
2021/11/30 07:14:55;;;;;;;;;;;;;;;;;;4546617;28;19917;-70
2021/11/30 07:17:05;;;;;;;;;;;;;;;;;;4546129;28;20592;-70
2021/11/30 07:19:16;;;;;;;;;;;;;;;;;;4546237;28;20296;-69
2021/11/30 07:21:26;;;;;;;;;;;;;;;;;;4547283;28;20011;-70
2021/11/30 07:23:37;;;;;;;;;;;;;;;;;;4550090;28;19962;-70
2021/11/30 07:25:51;;;;;;;;;;;;;;;;;;4546813;28;20011;-69
2021/11/30 07:28:02;;;;;;;;;;;;;;;;;;4546033;28;20539;-70
2021/11/30 07:30:12;;;;;;;;;;;;;;;;;;4549099;28;20007;-70
2021/11/30 07:32:22;;;;;;;;;;;;;;;;;;4547362;28;19912;-69
2021/11/30 07:34:33;;;;;;;;;;;;;;;;;;4546057;28;19917;-69
2021/11/30 07:36:43;;;;;;;;;;;;;;;;;;4546096;28;19947;-70
2021/11/30 07:38:54;;;;;;;;;;;;;;;;;;4547408;28;19918;-69
2021/11/30 07:41:05;;;;;;;;;;;;;;;;;;4543829;28;19912;-70
2021/11/30 07:43:15;;;;;;;;;;;;;;;;;;4546732;28;19930;-70
2021/11/30 07:45:25;;;;;;;;;;;;;;;;;;4545518;28;19912;-70
2021/11/30 07:47:36;;;;;;;;;;;;;;;;;;4544872;28;19921;-70
2021/11/30 07:49:46;;;;;;;;;;;;;;;;;;4547085;28;19924;-70
2021/11/30 07:51:56;;;;;;;;;;;;;;;;;;4548051;28;19947;-69
2021/11/30 07:54:07;;;;;;;;;;;;;;;;;;4547537;28;19920;-68
2021/11/30 07:56:17;;;;;;;;;;;;;;;;;;4545783;28;19960;-69
2021/11/30 07:58:28;;;;;;;;;;;;;;;;;;4548339;28;19916;-68
2021/11/30 08:00:38;;;;;;;;;;;;;;;;;;4545854;28;19920;-69
2021/11/30 08:02:49;;;;;;;;;;;;;;;;;;4543923;28;19926;-69
2021/11/30 08:04:59;;;;;;;;;;;;;;;;;;4544892;28;20387;-69
2021/11/30 08:07:10;;;;;;;;;;;;;;;;;;4547241;28;19974;-68
2021/11/30 08:09:20;;;;;;;;;;;;;;;;;;4545873;28;20331;-69
2021/11/30 08:11:31;;;;;;;;;;;;;;;;;;4544960;28;19922;-69
2021/11/30 08:13:41;;;;;;;;;;;;;;;;;;4543300;28;19967;-69
2021/11/30 08:15:51;;;;;;;;;;;;;;;;;;4545312;28;20415;-69
2021/11/30 08:18:02;;;;;;;;;;;;;;;;;;4546813;28;19963;-68
2021/11/30 08:20:12;;;;;;;;;;;;;;;;;;4545455;28;20000;-69
2021/11/30 08:22:22;;;;;;;;;;;;;;;;;;4546752;28;19916;-69
2021/11/30 08:24:33;;;;;;;;;;;;;;;;;;4545272;28;19927;-68
2021/11/30 08:26:43;;;;;;;;;;;;;;;;;;4544243;28;19976;-68
2021/11/30 08:28:53;;;;;;;;;;;;;;;;;;4536772;28;19971;-69
2021/11/30 08:31:04;;;;;;;;;;;;;;;;;;4544486;28;19944;-69
2021/11/30 08:33:15;;;;;;;;;;;;;;;;;;4546782;28;19912;-69
2021/11/30 08:35:25;;;;;;;;;;;;;;;;;;4545350;28;19968;-69
2021/11/30 08:37:36;;;;;;;;;;;;;;;;;;4545079;28;19975;-69
2021/11/30 08:39:48;;;;;;;;;;;;;;;;;;4543769;28;19916;-69
2021/11/30 08:41:59;;;;;;;;;;;;;;;;;;4544464;28;19996;-69
2021/11/30 08:44:09;;;;;;;;;;;;;;;;;;4544973;28;20415;-69
2021/11/30 08:46:19;;;;;;;;;;;;;;;;;;4549537;28;19916;-69
2021/11/30 08:48:30;;;;;;;;;;;;;;;;;;4545923;28;20962;-69
2021/11/30 08:50:40;;;;;;;;;;;;;;;;;;4545527;28;19920;-69
2021/11/30 08:52:51;;;;;;;;;;;;;;;;;;4544003;28;20010;-68
2021/11/30 08:55:01;;;;;;;;;;;;;;;;;;4544254;28;20399;-68
2021/11/30 08:57:11;;;;;;;;;;;;;;;;;;4546846;28;20004;-69
2021/11/30 08:59:22;;;;;;;;;;;;;;;;;;4544341;28;19920;-69
2021/11/30 09:01:32;;;;;;;;;;;;;;;;;;4544596;28;19920;-71
2021/11/30 09:03:43;;;;;;;;;;;;;;;;;;4544826;28;19916;-65
2021/11/30 09:05:53;;;;;;;;;;;;;;;;;;4545056;28;19921;-68
2021/11/30 09:08:04;;;;;;;;;;;;;;;;;;4551281;28;19920;-72
2021/11/30 09:10:15;;;;;;;;;;;;;;;;;;4549969;28;20351;-71
2021/11/30 09:12:26;;;;;;;;;;;;;;;;;;4547625;28;19921;-71
2021/11/30 09:14:36;;;;;;;;;;;;;;;;;;4549557;28;20031;-71
2021/11/30 09:16:48;;;;;;;;;;;;;;;;;;4546747;28;19924;-75
2021/11/30 09:18:58;;;;;;;;;;;;;;;;;;4548063;28;19924;-71
2021/11/30 09:21:12;;;;;;;;;;;;;;;;;;4549346;28;20503;-79
2021/11/30 09:23:23;;;;;;;;;;;;;;;;;;4547544;28;20655;-67
2021/11/30 09:25:33;;;;;;;;;;;;;;;;;;4547095;28;19913;-70
2021/11/30 09:27:43;;;;;;;;;;;;;;;;;;4547361;28;20386;-70
2021/11/30 09:29:54;;;;;;;;;;;;;;;;;;4547739;28;19970;-74
2021/11/30 09:32:04;;;;;;;;;;;;;;;;;;4548668;28;19965;-75
2021/11/30 09:34:15;;;;;;;;;;;;;;;;;;4548203;28;19917;-73
2021/11/30 09:36:25;;;;;;;;;;;;;;;;;;4546156;28;19991;-70
2021/11/30 09:38:35;;;;;;;;;;;;;;;;;;4549982;28;19920;-72
2021/11/30 09:40:47;;;;;;;;;;;;;;;;;;4550284;28;19924;-70
2021/11/30 09:42:57;;;;;;;;;;;;;;;;;;4547911;28;19956;-70
2021/11/30 09:45:10;;;;;;;;;;;;;;;;;;4545732;28;20035;-69
2021/11/30 09:47:21;;;;;;;;;;;;;;;;;;4545132;28;20026;-71
2021/11/30 09:49:31;;;;;;;;;;;;;;;;;;4548773;28;20891;-68
2021/11/30 09:51:41;;;;;;;;;;;;;;;;;;4547642;28;19917;-71
2021/11/30 09:53:52;;;;;;;;;;;;;;;;;;4547236;28;19928;-74
2021/11/30 09:56:02;;;;;;;;;;;;;;;;;;4546161;28;20357;-70
2021/11/30 09:58:13;;;;;;;;;;;;;;;;;;4537475;28;19931;-70
2021/11/30 10:00:24;;;;;;;;;;;;;;;;;;4545414;28;20934;-71
2021/11/30 10:02:35;;;;;;;;;;;;;;;;;;4545767;28;20043;-73
2021/11/30 10:04:45;;;;;;;;;;;;;;;;;;4544754;28;19927;-69
2021/11/30 10:06:55;;;;;;;;;;;;;;;;;;4543126;28;20358;-69
2021/11/30 10:09:16;;;;;;;;;;;;;;;;;;4545199;28;20373;-70
2021/11/30 10:11:26;;;;;;;;;;;;;;;;;;4537161;28;19921;-70
2021/11/30 10:13:37;;;;;;;;;;;;;;;;;;4544614;28;19916;-71
2021/11/30 10:15:47;;;;;;;;;;;;;;;;;;4546500;28;19939;-71
2021/11/30 10:18:17;;;;;;;;;;;;;;;;;;4546229;28;19927;-71
2021/11/30 10:20:27;;;;;;;;;;;;;;;;;;4544660;28;20013;-71
2021/11/30 10:22:57;;;;;;;;;;;;;;;;;;4544214;28;19916;-70
2021/11/30 10:25:17;;;;;;;;;;;;;;;;;;4544794;28;19962;-66
2021/11/30 10:27:28;;;;;;;;;;;;;;;;;;4546745;28;19951;-64
2021/11/30 10:29:41;;;;;;;;;;;;;;;;;;4544654;28;19924;-63
2021/11/30 10:31:53;;;;;;;;;;;;;;;;;;4544892;28;19924;-65
2021/11/30 10:34:10;;;;;;;;;;;;;;;;;;4546984;28;19971;-64
2021/11/30 10:36:20;;;;;;;;;;;;;;;;;;4544394;28;20703;-65
2021/11/30 10:38:32;;;;;;;;;;;;;;;;;;4544211;28;19916;-65
2021/11/30 10:40:43;;;;;;;;;;;;;;;;;;4545276;28;20011;-66
2021/11/30 10:42:54;;;;;;;;;;;;;;;;;;4559791;28;19920;-66
2021/11/30 10:45:05;;;;;;;;;;;;;;;;;;4541937;28;20884;-65
2021/11/30 10:47:16;;;;;;;;;;;;;;;;;;4547036;28;19916;-64
2021/11/30 10:49:26;;;;;;;;;;;;;;;;;;4529529;28;19921;-69
2021/11/30 10:51:40;;;;;;;;;;;;;;;;;;4544819;28;23699;-65
2021/11/30 10:53:55;;;;;;;;;;;;;;;;;;4543624;28;19921;-65
2021/11/30 10:56:07;;;;;;;;;;;;;;;;;;4545040;28;20143;-65
2021/11/30 10:58:17;;;;;;;;;;;;;;;;;;4506423;28;1111311;-65
2021/11/30 11:00:33;;;;;;;;;;;;;;;;;;4544937;28;20073;-65
2021/11/30 11:02:53;;;;;;;;;;;;;;;;;;4547836;28;19916;-65
2021/11/30 11:05:18;;;;;;;;;;;;;;;;;;4544295;28;19974;-67
2021/11/30 11:07:28;;;;;;;;;;;;;;;;;;4544721;28;21618;-65
2021/11/30 11:09:39;;;;;;;;;;;;;;;;;;4544433;28;19928;-65
2021/11/30 11:11:57;;;;;;;;;;;;;;;;;;4547125;28;19999;-66
2021/11/30 11:14:20;;;;;;;;;;;;;;;;;;4553884;28;20404;-66
2021/11/30 11:16:31;;;;;;;;;;;;;;;;;;4544110;28;19971;-70
2021/11/30 11:18:43;;;;;;;;;;;;;;;;;;4545927;28;19917;-64
2021/11/30 11:21:12;;;;;;;;;;;;;;;;;;4544325;28;19970;-63
2021/11/30 11:23:24;;;;;;;;;;;;;;;;;;4544075;28;19917;-63
2021/11/30 11:25:34;;;;;;;;;;;;;;;;;;4544428;28;19920;-62
2021/11/30 11:27:44;;;;;;;;;;;;;;;;;;4546490;28;19917;-60
2021/11/30 11:29:55;;;;;;;;;;;;;;;;;;4546070;28;20535;-63
2021/11/30 11:32:07;;;;;;;;;;;;;;;;;;4543664;28;19923;-61
2021/11/30 11:34:19;;;;;;;;;;;;;;;;;;4545102;28;19930;-63
2021/11/30 11:36:29;;;;;;;;;;;;;;;;;;4543425;28;19924;-63
2021/11/30 11:38:40;;;;;;;;;;;;;;;;;;4544876;28;19912;-61
2021/11/30 11:40:50;;;;;;;;;;;;;;;;;;4545946;28;19916;-62
2021/11/30 11:43:01;;;;;;;;;;;;;;;;;;4543316;28;19975;-61
2021/11/30 11:45:11;;;;;;;;;;;;;;;;;;4546657;28;19955;-61
2021/11/30 11:47:22;;;;;;;;;;;;;;;;;;4546131;28;20438;-62
2021/11/30 11:49:37;;;;;;;;;;;;;;;;;;4548939;28;20427;-61
2021/11/30 11:51:48;;;;;;;;;;;;;;;;;;4546944;28;19993;-61
2021/11/30 11:53:59;;;;;;;;;;;;;;;;;;4544486;28;20040;-61
2021/11/30 11:56:17;;;;;;;;;;;;;;;;;;4546635;28;19975;-61
2021/11/30 11:58:31;;;;;;;;;;;;;;;;;;4546896;28;20556;-61
2021/11/30 12:00:48;;;;;;;;;;;;;;;;;;4545336;28;19920;-61
2021/11/30 12:02:59;;;;;;;;;;;;;;;;;;4547327;28;20562;-61
2021/11/30 12:05:09;;;;;;;;;;;;;;;;;;4544665;28;19917;-61
2021/11/30 12:07:21;;;;;;;;;;;;;;;;;;4545831;28;20347;-61
2021/11/30 12:09:31;;;;;;;;;;;;;;;;;;4545088;28;19932;-61
2021/11/30 12:11:43;;;;;;;;;;;;;;;;;;4545010;28;20415;-62
2021/11/30 12:13:53;;;;;;;;;;;;;;;;;;4543119;28;20011;-61
2021/11/30 12:16:09;;;;;;;;;;;;;;;;;;4545390;28;20452;-61
2021/11/30 12:18:35;;;;;;;;;;;;;;;;;;4552689;28;20051;-61
2021/11/30 12:20:45;;;;;;;;;;;;;;;;;;4544370;28;19912;-62
2021/11/30 12:22:59;;;;;;;;;;;;;;;;;;4544412;28;19916;-61
2021/11/30 12:25:35;;;;;;;;;;;;;;;;;;4541883;28;19928;-61
2021/11/30 12:27:46;;;;;;;;;;;;;;;;;;4540782;28;19923;-61
2021/11/30 12:29:56;;;;;;;;;;;;;;;;;;4542901;28;19923;-62
2021/11/30 12:32:14;;;;;;;;;;;;;;;;;;4544894;28;21176;-61
2021/11/30 12:34:37;;;;;;;;;;;;;;;;;;4542717;28;19915;-61
2021/11/30 12:36:48;;;;;;;;;;;;;;;;;;4544471;28;19943;-61
2021/11/30 12:39:00;;;;;;;;;;;;;;;;;;4544356;28;20762;-61
2021/11/30 12:41:31;;;;;;;;;;;;;;;;;;4545701;28;19916;-61
2021/11/30 12:43:43;;;;;;;;;;;;;;;;;;4544138;28;19917;-62
2021/11/30 12:45:55;;;;;;;;;;;;;;;;;;4545643;28;19916;-62
2021/11/30 12:48:12;;;;;;;;;;;;;;;;;;4543968;28;19917;-61
2021/11/30 12:50:24;;;;;;;;;;;;;;;;;;4544975;28;20518;-61
2021/11/30 12:52:38;;;;;;;;;;;;;;;;;;4543865;28;19920;-62
2021/11/30 12:54:59;;;;;;;;;;;;;;;;;;4542663;28;19924;-62
2021/11/30 12:57:12;;;;;;;;;;;;;;;;;;4544953;28;20511;-62
2021/11/30 12:59:37;;;;;;;;;;;;;;;;;;4543109;28;19927;-61
2021/11/30 13:02:07;;;;;;;;;;;;;;;;;;4544791;28;20539;-61
2021/11/30 13:04:29;;;;;;;;;;;;;;;;;;4543612;28;19917;-61
2021/11/30 13:06:59;;;;;;;;;;;;;;;;;;4544489;28;20015;-61
2021/11/30 13:09:10;;;;;;;;;;;;;;;;;;4543886;28;20574;-61
2021/11/30 13:11:20;;;;;;;;;;;;;;;;;;4543068;28;20379;-61
2021/11/30 13:13:35;;;;;;;;;;;;;;;;;;4543724;28;19916;-61
2021/11/30 13:15:48;;;;;;;;;;;;;;;;;;4544203;28;20027;-61
2021/11/30 13:18:02;;;;;;;;;;;;;;;;;;4547976;28;19916;-61
2021/11/30 13:20:15;;;;;;;;;;;;;;;;;;4546067;28;19916;-61
2021/11/30 13:22:25;;;;;;;;;;;;;;;;;;4546692;28;19916;-61
2021/11/30 13:24:41;;;;;;;;;;;;;;;;;;4546820;28;19920;-61
2021/11/30 13:26:51;;;;;;;;;;;;;;;;;;4546269;28;21195;-61
2021/11/30 13:29:02;;;;;;;;;;;;;;;;;;4545146;28;19982;-62
2021/11/30 13:31:14;;;;;;;;;;;;;;;;;;4544507;28;19919;-62
2021/11/30 13:33:25;;;;;;;;;;;;;;;;;;4544505;28;19931;-63
2021/11/30 13:35:40;;;;;;;;;;;;;;;;;;4543729;28;19920;-62
2021/11/30 13:37:53;;;;;;;;;;;;;;;;;;4544542;28;20478;-62
2021/11/30 13:40:08;;;;;;;;;;;;;;;;;;4545705;28;19923;-62
2021/11/30 13:42:18;;;;;;;;;;;;;;;;;;4544808;28;20027;-62
2021/11/30 13:44:28;;;;;;;;;;;;;;;;;;4545146;28;19999;-62
2021/11/30 13:46:40;;;;;;;;;;;;;;;;;;4513844;28;20008;-62
2021/11/30 13:48:52;;;;;;;;;;;;;;;;;;4546779;28;20456;-62
2021/11/30 13:51:04;;;;;;;;;;;;;;;;;;4546022;28;19924;-62
2021/11/30 13:53:15;;;;;;;;;;;;;;;;;;4545888;28;20047;-62
2021/11/30 13:55:53;;;;;;;;;;;;;;;;;;4547024;28;19922;-62
2021/11/30 13:58:33;;;;;;;;;;;;;;;;;;4547736;28;19920;-62
2021/11/30 14:01:18;;;;;;;;;;;;;;;;;;4536043;28;20010;-61
2021/11/30 14:03:38;;;;;;;;;;;;;;;;;;4547903;28;19917;-62
2021/11/30 14:05:48;;;;;;;;;;;;;;;;;;4547934;28;19920;-62
2021/11/30 14:07:58;;;;;;;;;;;;;;;;;;4549038;28;19916;-62
2021/11/30 14:10:19;;;;;;;;;;;;;;;;;;4546953;28;19920;-62
2021/11/30 14:12:30;;;;;;;;;;;;;;;;;;4546528;28;19990;-62
2021/11/30 14:14:47;;;;;;;;;;;;;;;;;;4547450;28;20014;-62
2021/11/30 14:16:58;;;;;;;;;;;;;;;;;;4546882;28;19917;-63
2021/11/30 14:19:09;;;;;;;;;;;;;;;;;;4549705;28;19922;-64
2021/11/30 14:21:24;;;;;;;;;;;;;;;;;;4545258;28;19917;-63
2021/11/30 14:23:34;;;;;;;;;;;;;;;;;;4546583;28;19928;-62
2021/11/30 14:25:45;;;;;;;;;;;;;;;;;;4547083;28;19924;-61
2021/11/30 14:27:59;;;;;;;;;;;;;;;;;;4547466;28;20216;-62
2021/11/30 14:30:10;;;;;;;;;;;;;;;;;;4547152;28;19959;-62
2021/11/30 14:32:25;;;;;;;;;;;;;;;;;;4547021;28;20887;-61
2021/11/30 14:34:39;;;;;;;;;;;;;;;;;;4547749;28;20670;-63
2021/11/30 14:36:50;;;;;;;;;;;;;;;;;;4547415;28;19916;-61
2021/11/30 14:39:00;;;;;;;;;;;;;;;;;;4546866;28;19916;-61
2021/11/30 14:41:12;;;;;;;;;;;;;;;;;;4546007;28;20091;-62
2021/11/30 14:43:23;;;;;;;;;;;;;;;;;;4531770;28;20043;-62
2021/11/30 14:45:33;;;;;;;;;;;;;;;;;;4546892;28;19916;-64
2021/11/30 14:47:44;;;;;;;;;;;;;;;;;;4548638;28;20300;-64
2021/11/30 14:50:02;;;;;;;;;;;;;;;;;;4547859;28;20389;-63
2021/11/30 14:52:19;;;;;;;;;;;;;;;;;;4546636;28;19921;-68
2021/11/30 14:54:31;;;;;;;;;;;;;;;;;;4547304;28;20011;-65
2021/11/30 14:56:43;;;;;;;;;;;;;;;;;;4547183;28;19960;-63
2021/11/30 14:58:53;;;;;;;;;;;;;;;;;;4546933;28;19920;-67
2021/11/30 15:01:09;;;;;;;;;;;;;;;;;;4527787;28;19923;-65
2021/11/30 15:03:21;;;;;;;;;;;;;;;;;;4545614;28;20005;-64
2021/11/30 15:05:37;;;;;;;;;;;;;;;;;;4546873;28;20023;-66
2021/11/30 15:07:48;;;;;;;;;;;;;;;;;;4548150;28;20018;-67
2021/11/30 15:09:58;;;;;;;;;;;;;;;;;;4549104;28;19920;-71
2021/11/30 15:12:09;;;;;;;;;;;;;;;;;;4545586;28;19916;-68
2021/11/30 15:14:29;;;;;;;;;;;;;;;;;;4548106;28;20388;-70
2021/11/30 15:16:46;;;;;;;;;;;;;;;;;;4547944;28;19920;-72